Himawari 2 — JG5636 — position and weather

sailwx.info

Track history (hours):
 
Tides and Currents Weather Stations Pressure Air Temp Water Temp Dewpoint Dewpoint Depression Visibility Wind Speed Wind Dir Waves Ship Positions

Himawari 2

Last reported at 2016-May-30 23:33 UTC. Time now 2016-May-31 00:11 UTC.
Position N 35°35' E 139°47'.

Length 161 m; draft 6.5 m.

Type: Cargo ship. MMSI: 431100957.

Date/timePositionNaut miles runAvg speedWind from/ knotsBaromVisibWave heightAir tempDewpointWater temp
2016-May-30 23:33N 35°35' E 139°47'1312.6
2016-May-30 22:33N 35°23' E 139°46'1211.7
2016-May-30 21:33N 35°11' E 139°47'2518.0
2016-May-30 20:10N 34°53' E 139°26'5920.7
2016-May-30 17:20N 34°22' E 138°26'17419.5
2016-May-30 08:25N 33°57' E 134°57'2222.4
2016-May-30 07:26N 34°19' E 134°59'1820.5
2016-May-30 06:33N 34°32' E 135°14'11 9.6
2016-May-30 05:25N 34°40' E 135°24'0 0.0
2016-May-30 04:25N 34°40' E 135°24'0 0.0
2016-May-30 03:25N 34°40' E 135°24'0 0.0
2016-May-30 02:31N 34°40' E 135°24'0 0.0
2016-May-30 01:25N 34°40' E 135°24'0 0.0
2016-May-30 00:31N 34°40' E 135°24'0 0.0
2016-May-29 23:25N 34°40' E 135°24'0 0.0
2016-May-29 22:31N 34°40' E 135°24'0 0.0
2016-May-29 21:19N 34°40' E 135°24'0 0.0
2016-May-29 20:19N 34°40' E 135°24'0 0.0
2016-May-29 19:31N 34°40' E 135°24'0 0.0
2016-May-29 17:31N 34°40' E 135°24'0 0.0
2016-May-29 16:31N 34°40' E 135°24'0 0.0
2016-May-29 15:31N 34°40' E 135°24'0 0.0
2016-May-29 14:31N 34°40' E 135°24'0 0.0
2016-May-29 13:25N 34°40' E 135°24'0 0.0
2016-May-29 12:25N 34°40' E 135°24'0 0.0
2016-May-29 10:19N 34°40' E 135°24'0 0.0
2016-May-29 08:25N 34°40' E 135°24'0 0.0
2016-May-29 07:25N 34°40' E 135°24'0 0.0
2016-May-29 06:25N 34°40' E 135°24'0 0.0
2016-May-29 05:25N 34°40' E 135°24'0 0.0
2016-May-29 04:33N 34°40' E 135°24'7 7.0
2016-May-29 03:33N 34°34' E 135°18'2020.1
2016-May-29 02:33N 34°20' E 135°02'2019.6
2016-May-29 01:33N 34°00' E 135°00'22618.7
2016-May-28 13:29N 34°54' E 139°26'2021.0
2016-May-28 12:33N 35°08' E 139°43'1312.8
2016-May-28 11:33N 35°20' E 139°42'1515.2
2016-May-28 10:34N 35°35' E 139°48'1 1.4
2016-May-28 09:33N 35°36' E 139°48'5 4.8
2016-May-28 08:33N 35°34' E 139°53'5 5.0
2016-May-28 07:33N 35°36' E 139°48'0 0.3
2016-May-28 06:32N 35°36' E 139°48'0 0.0
2016-May-28 05:32N 35°36' E 139°48'0 0.0
2016-May-28 04:29N 35°36' E 139°48'0 0.0
2016-May-28 03:32N 35°36' E 139°48'0 0.1
2016-May-28 02:33N 35°36' E 139°48'9 8.5
2016-May-28 01:34N 35°28' E 139°51'1211.7
2016-May-28 00:33N 35°18' E 139°45'1313.3
2016-May-27 23:33N 35°04' E 139°46'1413.9
2016-May-27 22:32N 34°53' E 139°56'2121.8
2016-May-27 21:33N 35°03' E 140°19'2120.9
2016-May-27 20:32N 35°18' E 140°38'2323.3
2016-May-27 19:34N 35°35' E 140°56'2323.4
2016-May-27 18:33N 35°59' E 140°58'2423.9
2016-May-27 17:33N 36°22' E 140°59'2423.7
2016-May-27 16:33N 36°46' E 141°02'  
2016-May-24 23:29N 36°51' E 141°04'1718.8
2016-May-24 22:33N 36°34' E 141°03'2018.9
2016-May-24 21:31N 36°14' E 141°01'1918.8
2016-May-24 20:32N 35°56' E 141°01'1818.9
2016-May-24 19:33N 35°38' E 140°60'2519.2
2016-May-24 18:16N 35°18' E 140°41'1921.3
2016-May-24 17:22N 35°03' E 140°26'1920.7
2016-May-24 16:26N 34°55' E 140°05'1617.4
2016-May-24 15:32N 34°52' E 139°46'1817.9
2016-May-24 14:33N 35°09' E 139°45'1312.6
2016-May-24 13:34N 35°21' E 139°42'1413.9
2016-May-24 12:34N 35°35' E 139°48'2 1.7
2016-May-24 11:32N 35°36' E 139°48'0 0.0
2016-May-24 10:32N 35°36' E 139°48'0 0.0
2016-May-24 09:32N 35°36' E 139°48'0 0.0
2016-May-24 08:20N 35°36' E 139°48'0 0.0
2016-May-24 07:32N 35°36' E 139°48'0 0.0
2016-May-24 06:32N 35°36' E 139°48'0 0.0
2016-May-24 05:32N 35°36' E 139°48'0 0.0
2016-May-24 04:32N 35°36' E 139°48'0 0.0
2016-May-24 03:32N 35°36' E 139°48'0 0.0
2016-May-24 02:32N 35°36' E 139°48'0 0.0
2016-May-24 01:32N 35°36' E 139°48'0 0.0
2016-May-24 00:32N 35°36' E 139°48'2 1.7
2016-May-23 23:33N 35°35' E 139°48'1313.0
2016-May-23 22:33N 35°22' E 139°45'1212.1
2016-May-23 21:33N 35°10' E 139°47'1918.8
2016-May-23 20:34N 34°56' E 139°32'2424.1
2016-May-23 19:34N 34°40' E 139°09'4923.7
2016-May-23 17:30N 34°16' E 138°17'16721.0
2016-May-23 09:34N 33°54' E 134°58'2423.5
2016-May-23 08:33N 34°18' E 134°59'2222.5
2016-May-23 07:33N 34°34' E 135°18'8 6.6
2016-May-23 06:24N 34°40' E 135°24'0 0.0
2016-May-23 05:18N 34°40' E 135°24'0 0.0
2016-May-23 04:30N 34°40' E 135°24'0 0.0
2016-May-23 03:30N 34°40' E 135°24'0 0.0
2016-May-23 02:18N 34°40' E 135°24'0 0.0
2016-May-23 01:30N 34°40' E 135°24'0 0.0
2016-May-23 00:30N 34°40' E 135°24'0 0.0
2016-May-22 23:30N 34°40' E 135°24'0 0.0
2016-May-22 22:24N 34°40' E 135°24'0 0.0
2016-May-22 21:24N 34°40' E 135°24'0 0.0
2016-May-22 20:24N 34°40' E 135°24'0 0.0
2016-May-22 18:30N 34°40' E 135°24'0 0.0
2016-May-22 17:30N 34°40' E 135°24'0 0.0
2016-May-22 16:30N 34°40' E 135°24'0 0.0
2016-May-22 15:12N 34°40' E 135°24'0 0.0
2016-May-22 14:30N 34°40' E 135°24'0 0.0
2016-May-22 13:30N 34°40' E 135°24'0 0.0
2016-May-22 12:30N 34°40' E 135°24'0 0.0
2016-May-22 11:06N 34°40' E 135°24'0 0.0
2016-May-22 10:30N 34°40' E 135°24'0 0.0
2016-May-22 09:18N 34°40' E 135°24'0 0.0
2016-May-22 08:30N 34°40' E 135°24'0 0.0
2016-May-22 07:30N 34°40' E 135°24'0 0.0
2016-May-22 06:30N 34°40' E 135°24'0 0.0
2016-May-22 05:30N 34°40' E 135°24'0 0.0
2016-May-22 04:30N 34°40' E 135°24'0 0.0
2016-May-22 03:30N 34°40' E 135°24'0 0.0
2016-May-22 02:30N 34°40' E 135°24'0 0.0
2016-May-22 01:31N 34°40' E 135°24'4 4.3
2016-May-22 00:33N 34°37' E 135°21'1919.3
2016-May-21 23:33N 34°23' E 135°04'1919.1
2016-May-21 22:34N 34°04' E 135°00'22716.9
2016-May-21 09:08N 34°56' E 139°29'1319.4
2016-May-21 08:28N 35°04' E 139°40'1314.5
2016-May-21 07:34N 35°17' E 139°45'1313.2
2016-May-21 06:34N 35°29' E 139°50'7 7.1
2016-May-21 05:32N 35°36' E 139°48'0 0.0
2016-May-21 04:32N 35°36' E 139°48'0 0.0
2016-May-21 03:32N 35°36' E 139°48'0 0.0
2016-May-21 02:32N 35°36' E 139°48'0 0.0
2016-May-21 01:32N 35°36' E 139°48'1 0.6
2016-May-21 00:33N 35°36' E 139°47'1111.3
2016-May-20 23:34N 35°25' E 139°47'  
Track history (hours):
 
Tides and Currents Weather Stations Pressure Air Temp Water Temp Dewpoint Dewpoint Depression Visibility Wind Speed Wind Dir Waves Ship Positions

Himawari 2

Last reported at 2016-May-30 23:33 UTC. Time now 2016-May-31 00:11 UTC.
Position N 35°35' E 139°47'.

Length 161 m; draft 6.5 m.

Type: Cargo ship. MMSI: 431100957.

Date/timePositionNaut miles runAvg speedWind from/ knotsBaromVisibWave heightAir tempDewpointWater temp
2016-May-30 23:33N 35°35' E 139°47'1312.6
2016-May-30 22:33N 35°23' E 139°46'1211.7
2016-May-30 21:33N 35°11' E 139°47'2518.0
2016-May-30 20:10N 34°53' E 139°26'5920.7
2016-May-30 17:20N 34°22' E 138°26'17419.5
2016-May-30 08:25N 33°57' E 134°57'2222.4
2016-May-30 07:26N 34°19' E 134°59'1820.5
2016-May-30 06:33N 34°32' E 135°14'11 9.6
2016-May-30 05:25N 34°40' E 135°24'0 0.0
2016-May-30 04:25N 34°40' E 135°24'0 0.0
2016-May-30 03:25N 34°40' E 135°24'0 0.0
2016-May-30 02:31N 34°40' E 135°24'0 0.0
2016-May-30 01:25N 34°40' E 135°24'0 0.0
2016-May-30 00:31N 34°40' E 135°24'0 0.0
2016-May-29 23:25N 34°40' E 135°24'0 0.0
2016-May-29 22:31N 34°40' E 135°24'0 0.0
2016-May-29 21:19N 34°40' E 135°24'0 0.0
2016-May-29 20:19N 34°40' E 135°24'0 0.0
2016-May-29 19:31N 34°40' E 135°24'0 0.0
2016-May-29 17:31N 34°40' E 135°24'0 0.0
2016-May-29 16:31N 34°40' E 135°24'0 0.0
2016-May-29 15:31N 34°40' E 135°24'0 0.0
2016-May-29 14:31N 34°40' E 135°24'0 0.0
2016-May-29 13:25N 34°40' E 135°24'0 0.0
2016-May-29 12:25N 34°40' E 135°24'0 0.0
2016-May-29 10:19N 34°40' E 135°24'0 0.0
2016-May-29 08:25N 34°40' E 135°24'0 0.0
2016-May-29 07:25N 34°40' E 135°24'0 0.0
2016-May-29 06:25N 34°40' E 135°24'0 0.0
2016-May-29 05:25N 34°40' E 135°24'0 0.0
2016-May-29 04:33N 34°40' E 135°24'7 7.0
2016-May-29 03:33N 34°34' E 135°18'2020.1
2016-May-29 02:33N 34°20' E 135°02'2019.6
2016-May-29 01:33N 34°00' E 135°00'22618.7
2016-May-28 13:29N 34°54' E 139°26'2021.0
2016-May-28 12:33N 35°08' E 139°43'1312.8
2016-May-28 11:33N 35°20' E 139°42'1515.2
2016-May-28 10:34N 35°35' E 139°48'1 1.4
2016-May-28 09:33N 35°36' E 139°48'5 4.8
2016-May-28 08:33N 35°34' E 139°53'5 5.0
2016-May-28 07:33N 35°36' E 139°48'0 0.3
2016-May-28 06:32N 35°36' E 139°48'0 0.0
2016-May-28 05:32N 35°36' E 139°48'0 0.0
2016-May-28 04:29N 35°36' E 139°48'0 0.0
2016-May-28 03:32N 35°36' E 139°48'0 0.1
2016-May-28 02:33N 35°36' E 139°48'9 8.5
2016-May-28 01:34N 35°28' E 139°51'1211.7
2016-May-28 00:33N 35°18' E 139°45'1313.3
2016-May-27 23:33N 35°04' E 139°46'1413.9
2016-May-27 22:32N 34°53' E 139°56'2121.8
2016-May-27 21:33N 35°03' E 140°19'2120.9
2016-May-27 20:32N 35°18' E 140°38'2323.3
2016-May-27 19:34N 35°35' E 140°56'2323.4
2016-May-27 18:33N 35°59' E 140°58'2423.9
2016-May-27 17:33N 36°22' E 140°59'2423.7
2016-May-27 16:33N 36°46' E 141°02'  
2016-May-24 23:29N 36°51' E 141°04'1718.8
2016-May-24 22:33N 36°34' E 141°03'2018.9
2016-May-24 21:31N 36°14' E 141°01'1918.8
2016-May-24 20:32N 35°56' E 141°01'1818.9
2016-May-24 19:33N 35°38' E 140°60'2519.2
2016-May-24 18:16N 35°18' E 140°41'1921.3
2016-May-24 17:22N 35°03' E 140°26'1920.7
2016-May-24 16:26N 34°55' E 140°05'1617.4
2016-May-24 15:32N 34°52' E 139°46'1817.9
2016-May-24 14:33N 35°09' E 139°45'1312.6
2016-May-24 13:34N 35°21' E 139°42'1413.9
2016-May-24 12:34N 35°35' E 139°48'2 1.7
2016-May-24 11:32N 35°36' E 139°48'0 0.0
2016-May-24 10:32N 35°36' E 139°48'0 0.0
2016-May-24 09:32N 35°36' E 139°48'0 0.0
2016-May-24 08:20N 35°36' E 139°48'0 0.0
2016-May-24 07:32N 35°36' E 139°48'0 0.0
2016-May-24 06:32N 35°36' E 139°48'0 0.0
2016-May-24 05:32N 35°36' E 139°48'0 0.0
2016-May-24 04:32N 35°36' E 139°48'0 0.0
2016-May-24 03:32N 35°36' E 139°48'0 0.0
2016-May-24 02:32N 35°36' E 139°48'0 0.0
2016-May-24 01:32N 35°36' E 139°48'0 0.0
2016-May-24 00:32N 35°36' E 139°48'2 1.7
2016-May-23 23:33N 35°35' E 139°48'1313.0
2016-May-23 22:33N 35°22' E 139°45'1212.1
2016-May-23 21:33N 35°10' E 139°47'1918.8
2016-May-23 20:34N 34°56' E 139°32'2424.1
2016-May-23 19:34N 34°40' E 139°09'4923.7
2016-May-23 17:30N 34°16' E 138°17'16721.0
2016-May-23 09:34N 33°54' E 134°58'2423.5
2016-May-23 08:33N 34°18' E 134°59'2222.5
2016-May-23 07:33N 34°34' E 135°18'8 6.6
2016-May-23 06:24N 34°40' E 135°24'0 0.0
2016-May-23 05:18N 34°40' E 135°24'0 0.0
2016-May-23 04:30N 34°40' E 135°24'0 0.0
2016-May-23 03:30N 34°40' E 135°24'0 0.0
2016-May-23 02:18N 34°40' E 135°24'0 0.0
2016-May-23 01:30N 34°40' E 135°24'0 0.0
2016-May-23 00:30N 34°40' E 135°24'0 0.0
2016-May-22 23:30N 34°40' E 135°24'0 0.0
2016-May-22 22:24N 34°40' E 135°24'0 0.0
2016-May-22 21:24N 34°40' E 135°24'0 0.0
2016-May-22 20:24N 34°40' E 135°24'0 0.0
2016-May-22 18:30N 34°40' E 135°24'0 0.0
2016-May-22 17:30N 34°40' E 135°24'0 0.0
2016-May-22 16:30N 34°40' E 135°24'0 0.0
2016-May-22 15:12N 34°40' E 135°24'0 0.0
2016-May-22 14:30N 34°40' E 135°24'0 0.0
2016-May-22 13:30N 34°40' E 135°24'0 0.0
2016-May-22 12:30N 34°40' E 135°24'0 0.0
2016-May-22 11:06N 34°40' E 135°24'0 0.0
2016-May-22 10:30N 34°40' E 135°24'0 0.0
2016-May-22 09:18N 34°40' E 135°24'0 0.0
2016-May-22 08:30N 34°40' E 135°24'0 0.0
2016-May-22 07:30N 34°40' E 135°24'0 0.0
2016-May-22 06:30N 34°40' E 135°24'0 0.0
2016-May-22 05:30N 34°40' E 135°24'0 0.0
2016-May-22 04:30N 34°40' E 135°24'0 0.0
2016-May-22 03:30N 34°40' E 135°24'0 0.0
2016-May-22 02:30N 34°40' E 135°24'0 0.0
2016-May-22 01:31N 34°40' E 135°24'4 4.3
2016-May-22 00:33N 34°37' E 135°21'1919.3
2016-May-21 23:33N 34°23' E 135°04'1919.1
2016-May-21 22:34N 34°04' E 135°00'22716.9
2016-May-21 09:08N 34°56' E 139°29'1319.4
2016-May-21 08:28N 35°04' E 139°40'1314.5
2016-May-21 07:34N 35°17' E 139°45'1313.2
2016-May-21 06:34N 35°29' E 139°50'7 7.1
2016-May-21 05:32N 35°36' E 139°48'0 0.0
2016-May-21 04:32N 35°36' E 139°48'0 0.0
2016-May-21 03:32N 35°36' E 139°48'0 0.0
2016-May-21 02:32N 35°36' E 139°48'0 0.0
2016-May-21 01:32N 35°36' E 139°48'1 0.6
2016-May-21 00:33N 35°36' E 139°47'1111.3
2016-May-20 23:34N 35°25' E 139°47'  

Dump ship's entire track history